createdAt,value
2019-03-22T00:01:16.581Z,103104.92
2019-03-22T00:04:36.318Z,103100.86
2019-03-22T00:07:48.529Z,103101.34
2019-03-22T00:11:07.887Z,103093.09
2019-03-22T00:14:17.554Z,103089.62
2019-03-22T00:17:37.387Z,103093.09
2019-03-22T00:20:47.185Z,103098.34
2019-03-22T00:23:56.547Z,103084.42
2019-03-22T00:27:15.941Z,103077.55
2019-03-22T00:30:17.161Z,103081.54
2019-03-22T00:33:27.085Z,103073.73
2019-03-22T00:36:36.684Z,103075.52
2019-03-22T00:39:46.199Z,103072.48
2019-03-22T00:42:55.702Z,103079.02
2019-03-22T00:46:15.332Z,103081.58
2019-03-22T00:49:24.862Z,103073.93
2019-03-22T00:52:34.163Z,103067.05
2019-03-22T00:55:53.902Z,103073.45
2019-03-22T00:59:03.439Z,103073.97
2019-03-22T01:02:12.847Z,103077.34
2019-03-22T01:05:22.527Z,103068.23
2019-03-22T01:08:32.390Z,103073.77
2019-03-22T01:11:41.931Z,103077.20
2019-03-22T01:14:54.612Z,103080.20
2019-03-22T01:18:04.158Z,103083.81
2019-03-22T01:21:13.582Z,103091.09
2019-03-22T01:24:22.985Z,103092.84
2019-03-22T01:27:40.499Z,103091.73
2019-03-22T01:30:53.898Z,103095.97
2019-03-22T01:34:03.301Z,103104.22
2019-03-22T01:37:12.919Z,103105.48
2019-03-22T01:40:22.351Z,103098.05
2019-03-22T01:43:31.749Z,103095.48
2019-03-22T01:46:41.229Z,103085.67
2019-03-22T01:49:50.642Z,103074.83
2019-03-22T01:53:00.078Z,103075.23
2019-03-22T01:56:19.825Z,103078.73
2019-03-22T01:59:29.339Z,103081.73
2019-03-22T02:02:39.001Z,103070.88
2019-03-22T02:05:48.434Z,103072.62
2019-03-22T02:08:57.828Z,103067.95
2019-03-22T02:12:17.421Z,103066.64
2019-03-22T02:15:27.003Z,103073.19
2019-03-22T02:18:36.557Z,103076.64
2019-03-22T02:21:46.886Z,103065.34
2019-03-22T02:24:56.456Z,103069.73
2019-03-22T02:28:05.902Z,103064.27
2019-03-22T02:31:25.579Z,103061.59
2019-03-22T02:34:35.130Z,103067.20
2019-03-22T02:37:44.566Z,103060.63
2019-03-22T02:40:54.046Z,103058.03
2019-03-22T02:44:03.573Z,103062.34
2019-03-22T02:47:23.422Z,103066.72
2019-03-22T02:50:32.825Z,103070.80
2019-03-22T02:53:42.363Z,103066.00
2019-03-22T02:56:52.209Z,103061.63
2019-03-22T03:00:01.727Z,103059.40
2019-03-22T03:03:11.253Z,103062.38
2019-03-22T03:06:20.812Z,103056.73
2019-03-22T03:09:30.858Z,103058.03
2019-03-22T03:12:50.788Z,103054.50
2019-03-22T03:16:00.411Z,103055.42
2019-03-22T03:19:10.365Z,103051.97
2019-03-22T03:22:19.801Z,103043.38
2019-03-22T03:25:39.899Z,103042.87
2019-03-22T03:28:49.230Z,103035.51
2019-03-22T03:31:58.663Z,103043.31
2019-03-22T03:35:18.302Z,103036.88
2019-03-22T03:38:27.740Z,103046.43
2019-03-22T03:41:37.085Z,103047.63
2019-03-22T03:44:57.034Z,103048.52
2019-03-22T03:48:08.056Z,103052.94
2019-03-22T03:51:17.456Z,103045.61
2019-03-22T03:54:26.897Z,103046.02
2019-03-22T03:57:36.366Z,103042.53
2019-03-22T04:00:56.101Z,103041.56
2019-03-22T04:04:05.525Z,103038.18
2019-03-22T04:07:15.015Z,103044.20
2019-03-22T04:10:34.648Z,103038.11
2019-03-22T04:13:44.071Z,103034.69
2019-03-22T04:16:53.568Z,103027.74
2019-03-22T04:20:13.346Z,103036.44
2019-03-22T04:23:22.759Z,103041.64
2019-03-22T04:26:32.375Z,103041.16
2019-03-22T04:29:41.920Z,103051.52
2019-03-22T04:32:51.433Z,103058.51
2019-03-22T04:36:00.999Z,103071.48
2019-03-22T04:39:11.043Z,103082.29
2019-03-22T04:42:20.375Z,103077.91
2019-03-22T04:45:32.195Z,103076.31
2019-03-22T04:48:42.684Z,103072.81
2019-03-22T04:51:53.099Z,103080.62
2019-03-22T04:55:04.436Z,103082.84
2019-03-22T04:58:16.072Z,103083.38
2019-03-22T05:01:37.046Z,103093.72
2019-03-22T05:04:57.105Z,103092.77
2019-03-22T05:08:07.027Z,103096.70
2019-03-22T05:11:18.417Z,103093.69
2019-03-22T05:14:28.554Z,103098.38
2019-03-22T05:17:38.174Z,103101.77
2019-03-22T05:20:58.058Z,103097.52
2019-03-22T05:24:09.235Z,103093.27
2019-03-22T05:27:19.959Z,103103.61
2019-03-22T05:31:27.310Z,103115.03
2019-03-22T05:34:46.971Z,103111.16
2019-03-22T05:37:56.386Z,103113.28
2019-03-22T05:41:06.032Z,103121.12
2019-03-22T05:44:15.434Z,103119.40
2019-03-22T05:47:24.952Z,103123.66
2019-03-22T05:50:44.581Z,103120.55
2019-03-22T05:53:54.091Z,103124.42
2019-03-22T05:57:12.749Z,103139.64
2019-03-22T06:00:24.830Z,103140.20
2019-03-22T06:03:34.241Z,103144.98
2019-03-22T06:06:43.689Z,103143.26
2019-03-22T06:10:03.393Z,103148.02
2019-03-22T06:13:12.813Z,103148.52
2019-03-22T06:16:22.388Z,103145.08
2019-03-22T06:19:41.909Z,103137.16
2019-03-22T06:22:51.513Z,103148.80
2019-03-22T06:26:01.046Z,103145.31
2019-03-22T06:29:10.367Z,103143.52
2019-03-22T06:32:21.137Z,103142.30
2019-03-22T06:35:30.632Z,103144.40
2019-03-22T06:38:39.948Z,103133.59
2019-03-22T06:41:49.393Z,103139.61
2019-03-22T06:44:58.859Z,103131.10
2019-03-22T06:48:08.301Z,103128.89
2019-03-22T06:51:17.595Z,103125.78
2019-03-22T06:54:37.481Z,103126.61
2019-03-22T06:57:46.903Z,103131.34
2019-03-22T07:00:56.394Z,103128.22
2019-03-22T07:04:05.907Z,103122.61
2019-03-22T07:07:15.346Z,103122.23
2019-03-22T07:10:35.021Z,103120.52
2019-03-22T07:13:44.470Z,103125.17
2019-03-22T07:16:54.012Z,103118.98
2019-03-22T07:20:13.813Z,103120.66
2019-03-22T07:23:23.134Z,103127.30
2019-03-22T07:26:32.513Z,103130.24
2019-03-22T07:29:52.148Z,103133.22
2019-03-22T07:33:01.672Z,103135.96
2019-03-22T07:36:11.141Z,103128.16
2019-03-22T07:39:30.726Z,103128.50
2019-03-22T07:42:40.557Z,103132.33
2019-03-22T07:45:50.084Z,103134.89
2019-03-22T07:48:59.531Z,103131.69
2019-03-22T07:52:10.938Z,103126.52
2019-03-22T07:55:20.521Z,103126.48
2019-03-22T07:58:29.979Z,103128.56
2019-03-22T08:01:39.418Z,103124.36
2019-03-22T08:04:48.771Z,103125.11
2019-03-22T08:08:08.525Z,103119.39
2019-03-22T08:11:17.941Z,103111.69
2019-03-22T08:14:27.383Z,103116.75
2019-03-22T08:17:36.461Z,103117.23
2019-03-22T08:20:46.236Z,103115.83
2019-03-22T08:23:55.577Z,103109.31
2019-03-22T08:27:05.992Z,103114.22
2019-03-22T08:30:25.569Z,103111.34
2019-03-22T08:33:35.082Z,103119.64
2019-03-22T08:36:44.420Z,103113.83
2019-03-22T08:40:04.098Z,103113.57
2019-03-22T08:43:13.563Z,103115.77
2019-03-22T08:46:23.559Z,103108.81
2019-03-22T08:49:33.149Z,103102.29
2019-03-22T08:52:55.237Z,103102.16
2019-03-22T08:56:04.726Z,103107.28
2019-03-22T08:59:24.413Z,103109.25
2019-03-22T09:02:33.842Z,103096.33
2019-03-22T09:05:43.564Z,103100.19
2019-03-22T09:08:52.955Z,103103.60
2019-03-22T09:12:02.443Z,103100.49
2019-03-22T09:15:22.200Z,103094.73
2019-03-22T09:18:31.712Z,103092.18
2019-03-22T09:21:41.183Z,103093.39
2019-03-22T09:25:00.920Z,103090.53
2019-03-22T09:28:10.576Z,103087.08
2019-03-22T09:31:30.569Z,103079.11
2019-03-22T09:34:40.024Z,103085.08
2019-03-22T09:37:49.498Z,103087.58
2019-03-22T09:41:09.118Z,103077.33
2019-03-22T09:44:18.591Z,103081.45
2019-03-22T09:47:28.057Z,103072.98
2019-03-22T09:50:47.625Z,103072.84
2019-03-22T09:53:56.998Z,103073.25
2019-03-22T09:57:06.413Z,103068.88
2019-03-22T10:00:36.179Z,103069.22
2019-03-22T10:03:45.521Z,103067.13
2019-03-22T10:06:54.922Z,103052.05
2019-03-22T10:10:05.090Z,103046.52
2019-03-22T10:13:24.752Z,103044.41
2019-03-22T10:16:34.403Z,103045.08
2019-03-22T10:19:44.972Z,103040.19
2019-03-22T10:22:54.484Z,103035.47
2019-03-22T10:26:04.411Z,103040.14
2019-03-22T10:29:24.537Z,103039.09
2019-03-22T10:32:34.054Z,103038.39
2019-03-22T10:35:53.958Z,103031.61
2019-03-22T10:39:04.395Z,103034.55
2019-03-22T10:42:13.821Z,103027.95
2019-03-22T10:45:23.389Z,103026.97
2019-03-22T10:48:32.710Z,103022.81
2019-03-22T10:51:55.707Z,103019.58
2019-03-22T10:54:53.015Z,103018.92
2019-03-22T10:58:02.774Z,103010.48
2019-03-22T11:01:13.788Z,103004.27
2019-03-22T11:04:23.170Z,102994.38
2019-03-22T11:07:32.484Z,102985.69
2019-03-22T11:10:41.768Z,102990.75
2019-03-22T11:14:01.379Z,102987.48
2019-03-22T11:17:10.817Z,102983.67
2019-03-22T11:20:26.767Z,102975.73
2019-03-22T11:23:36.167Z,102971.36
2019-03-22T11:26:45.519Z,102970.54
2019-03-22T11:29:54.938Z,102965.48
2019-03-22T11:33:04.270Z,102953.02
2019-03-22T11:36:13.861Z,102951.02
2019-03-22T11:39:33.376Z,102951.10
2019-03-22T11:42:42.756Z,102958.73
2019-03-22T11:45:52.294Z,102954.12
2019-03-22T11:49:12.242Z,102943.03
2019-03-22T11:52:21.712Z,102941.66
2019-03-22T11:55:31.349Z,102945.70
2019-03-22T11:58:40.717Z,102945.51
2019-03-22T12:01:50.065Z,102941.66
2019-03-22T12:05:10.191Z,102932.64
2019-03-22T12:08:19.631Z,102939.20
2019-03-22T12:11:28.987Z,102934.85
2019-03-22T12:14:38.487Z,102933.67
2019-03-22T12:17:47.846Z,102934.98
2019-03-22T12:21:07.487Z,102926.27
2019-03-22T12:24:18.674Z,102928.33
2019-03-22T12:27:36.218Z,102927.84
2019-03-22T12:30:49.373Z,102915.52
2019-03-22T12:33:58.851Z,102907.92
2019-03-22T12:37:08.224Z,102910.68
2019-03-22T12:40:27.986Z,102906.19
2019-03-22T12:43:37.480Z,102899.68
2019-03-22T12:46:49.110Z,102897.70
2019-03-22T12:49:58.039Z,102895.00
2019-03-22T12:53:07.364Z,102895.21
2019-03-22T12:56:16.893Z,102883.91
2019-03-22T12:59:26.232Z,102883.63
2019-03-22T13:02:42.168Z,102877.22
2019-03-22T13:05:46.794Z,102875.41
2019-03-22T13:08:56.220Z,102874.70
2019-03-22T13:12:18.593Z,102863.13
2019-03-22T13:15:28.105Z,102862.41
2019-03-22T13:18:37.526Z,102851.48
2019-03-22T13:21:47.633Z,102852.11
2019-03-22T13:24:57.943Z,102841.56
2019-03-22T13:28:05.961Z,102840.86
2019-03-22T13:31:25.751Z,102827.31
2019-03-22T13:34:35.173Z,102825.63
2019-03-22T13:37:45.134Z,102816.25
2019-03-22T13:40:55.709Z,102808.30
2019-03-22T13:44:05.185Z,102811.14
2019-03-22T13:47:14.529Z,102802.88
2019-03-22T13:50:24.013Z,102803.67
2019-03-22T13:53:33.421Z,102792.39
2019-03-22T13:56:53.140Z,102783.59
2019-03-22T14:00:02.539Z,102774.53
2019-03-22T14:03:12.006Z,102775.03
2019-03-22T14:06:31.753Z,102762.64
2019-03-22T14:09:41.203Z,102754.16
2019-03-22T14:12:50.622Z,102747.84
2019-03-22T14:16:10.308Z,102737.52
2019-03-22T14:19:19.653Z,102736.52
2019-03-22T14:22:28.996Z,102735.73
2019-03-22T14:25:38.431Z,102734.59
2019-03-22T14:28:47.935Z,102731.70
2019-03-22T14:31:57.895Z,102727.73
2019-03-22T14:35:07.836Z,102724.30
2019-03-22T14:38:17.166Z,102715.83
2019-03-22T14:41:26.577Z,102713.28
2019-03-22T14:44:35.557Z,102705.92
2019-03-22T14:47:55.156Z,102695.38
2019-03-22T14:51:04.606Z,102700.23
2019-03-22T14:54:14.084Z,102688.29
2019-03-22T14:57:34.399Z,102679.70
2019-03-22T15:00:43.797Z,102681.08
2019-03-22T15:04:03.486Z,102671.01
2019-03-22T15:07:19.360Z,102660.87
2019-03-22T15:10:24.026Z,102650.80
2019-03-22T15:13:52.989Z,102646.09
2019-03-22T15:17:45.032Z,102641.56
2019-03-22T15:21:12.169Z,102635.92
2019-03-22T15:24:38.816Z,102629.87
2019-03-22T15:28:10.195Z,102625.48
2019-03-22T15:31:36.940Z,102618.20
2019-03-22T15:35:05.269Z,102610.62
2019-03-22T15:38:48.674Z,102600.95
2019-03-22T15:41:58.314Z,102599.60
2019-03-22T15:45:10.599Z,102594.42
2019-03-22T15:48:31.514Z,102587.95
2019-03-22T15:51:51.381Z,102585.20
2019-03-22T15:55:00.739Z,102586.81
2019-03-22T15:58:10.271Z,102586.70
2019-03-22T16:01:29.910Z,102578.55
2019-03-22T16:04:39.378Z,102577.58
2019-03-22T16:07:48.895Z,102576.56
2019-03-22T16:11:08.515Z,102572.61
2019-03-22T16:14:17.881Z,102571.33
2019-03-22T16:17:27.195Z,102566.63
2019-03-22T16:20:36.597Z,102565.44
2019-03-22T16:23:46.019Z,102563.59
2019-03-22T16:26:55.393Z,102561.41
2019-03-22T16:30:15.235Z,102563.97
2019-03-22T16:33:24.596Z,102555.78
2019-03-22T16:36:33.925Z,102551.84
2019-03-22T16:39:53.654Z,102545.16
2019-03-22T16:43:02.998Z,102542.55
2019-03-22T16:46:14.152Z,102535.92
2019-03-22T16:49:33.991Z,102532.39
2019-03-22T16:52:43.362Z,102529.28
2019-03-22T16:55:54.404Z,102523.84
2019-03-22T16:59:14.054Z,102529.17
2019-03-22T17:02:23.564Z,102524.55
2019-03-22T17:05:33.114Z,102521.94
2019-03-22T17:08:42.508Z,102521.42
2019-03-22T17:11:51.849Z,102522.27
2019-03-22T17:15:01.352Z,102521.31
2019-03-22T17:18:10.897Z,102517.94
2019-03-22T17:21:20.386Z,102519.33
2019-03-22T17:24:30.024Z,102520.08
2019-03-22T17:27:39.577Z,102522.70
2019-03-22T17:30:48.978Z,102512.48
2019-03-22T17:33:58.342Z,102518.37
2019-03-22T17:37:09.322Z,102515.36
2019-03-22T17:40:18.882Z,102512.00
2019-03-22T17:43:28.252Z,102516.70
2019-03-22T17:46:47.790Z,102518.09
2019-03-22T17:49:57.168Z,102518.26
2019-03-22T17:53:06.493Z,102524.68
2019-03-22T17:56:15.858Z,102513.70
2019-03-22T17:59:25.401Z,102512.72
2019-03-22T18:02:34.902Z,102511.76
2019-03-22T18:05:54.536Z,102512.30
2019-03-22T18:09:04.906Z,102516.39
2019-03-22T18:12:14.199Z,102512.00
2019-03-22T18:15:23.583Z,102519.30
2019-03-22T18:18:43.411Z,102527.16
2019-03-22T18:21:54.536Z,102520.06
2019-03-22T18:25:04.015Z,102522.27
2019-03-22T18:28:24.485Z,102518.22
2019-03-22T18:31:33.877Z,102513.80
2019-03-22T18:34:43.443Z,102519.84
2019-03-22T18:38:03.086Z,102517.03
2019-03-22T18:41:12.449Z,102515.58
2019-03-22T18:44:21.755Z,102510.81
2019-03-22T18:47:31.115Z,102512.46
2019-03-22T18:50:40.521Z,102504.03
2019-03-22T18:53:50.090Z,102511.62
2019-03-22T18:57:09.733Z,102514.12
2019-03-22T19:00:19.474Z,102512.35
2019-03-22T19:03:28.786Z,102508.97
2019-03-22T19:06:38.134Z,102502.34
2019-03-22T19:09:47.437Z,102503.17
2019-03-22T19:12:56.782Z,102506.13
2019-03-22T19:16:06.218Z,102498.79
2019-03-22T19:19:15.553Z,102492.75
2019-03-22T19:22:24.877Z,102496.67
2019-03-22T19:25:34.215Z,102505.83
2019-03-22T19:28:43.575Z,102500.73
2019-03-22T19:31:52.887Z,102504.73
2019-03-22T19:35:02.215Z,102505.12
2019-03-22T19:38:11.561Z,102502.72
2019-03-22T19:41:20.861Z,102501.41
2019-03-22T19:44:30.370Z,102502.71
2019-03-22T19:47:41.535Z,102497.16
2019-03-22T19:51:00.984Z,102494.55
2019-03-22T19:54:10.325Z,102496.45
2019-03-22T19:57:19.781Z,102494.54
2019-03-22T20:00:29.082Z,102494.22
2019-03-22T20:03:38.510Z,102492.20
2019-03-22T20:06:47.941Z,102494.78
2019-03-22T20:10:09.721Z,102482.56
2019-03-22T20:13:19.256Z,102491.65
2019-03-22T20:16:28.599Z,102496.75
2019-03-22T20:19:37.983Z,102492.40
2019-03-22T20:22:47.317Z,102483.69
2019-03-22T20:26:07.050Z,102488.19
2019-03-22T20:29:16.380Z,102492.66
2019-03-22T20:32:25.795Z,102490.05
2019-03-22T20:35:35.138Z,102481.68
2019-03-22T20:38:44.477Z,102477.53
2019-03-22T20:41:53.802Z,102484.10
2019-03-22T20:45:03.199Z,102473.98
2019-03-22T20:48:12.649Z,102472.42
2019-03-22T20:51:21.969Z,102473.03
2019-03-22T20:54:41.702Z,102468.67
2019-03-22T20:57:51.167Z,102469.65
2019-03-22T21:01:00.668Z,102466.31
2019-03-22T21:04:20.190Z,102465.89
2019-03-22T21:07:33.779Z,102468.14
2019-03-22T21:10:43.139Z,102466.55
2019-03-22T21:13:52.612Z,102462.97
2019-03-22T21:17:12.439Z,102462.39
2019-03-22T21:20:21.969Z,102458.99
2019-03-22T21:23:36.264Z,102458.57
2019-03-22T21:26:52.739Z,102441.55
2019-03-22T21:30:02.080Z,102439.73
2019-03-22T21:33:11.364Z,102443.83
2019-03-22T21:36:31.292Z,102435.06
2019-03-22T21:39:40.708Z,102433.84
2019-03-22T21:42:50.016Z,102433.00
2019-03-22T21:46:09.818Z,102418.50
2019-03-22T21:49:19.134Z,102422.39
2019-03-22T21:52:28.464Z,102414.75
2019-03-22T21:55:38.206Z,102409.53
2019-03-22T21:58:47.523Z,102407.33
2019-03-22T22:01:56.944Z,102402.56
2019-03-22T22:05:06.737Z,102403.84
2019-03-22T22:08:16.075Z,102391.60
2019-03-22T22:11:35.582Z,102388.42
2019-03-22T22:14:44.917Z,102383.67
2019-03-22T22:17:54.428Z,102375.20
2019-03-22T22:21:15.726Z,102370.33
2019-03-22T22:24:25.311Z,102374.80
2019-03-22T22:27:34.628Z,102374.72
2019-03-22T22:30:54.387Z,102361.80
2019-03-22T22:34:03.890Z,102357.27
2019-03-22T22:37:13.285Z,102351.74
2019-03-22T22:40:33.196Z,102350.19
2019-03-22T22:43:42.545Z,102344.78
2019-03-22T22:46:52.013Z,102336.03
2019-03-22T22:50:01.483Z,102338.66
2019-03-22T22:53:11.190Z,102331.13
2019-03-22T22:56:20.808Z,102332.75
2019-03-22T22:59:30.141Z,102322.55
2019-03-22T23:02:49.928Z,102320.14
2019-03-22T23:06:09.093Z,102317.70
2019-03-22T23:09:10.496Z,102321.55
2019-03-22T23:12:20.064Z,102313.50
2019-03-22T23:15:29.508Z,102319.58
2019-03-22T23:18:49.252Z,102316.29
2019-03-22T23:21:58.758Z,102314.62
2019-03-22T23:25:08.553Z,102308.59
2019-03-22T23:28:17.867Z,102304.06
2019-03-22T23:31:26.338Z,102308.72
2019-03-22T23:34:35.974Z,102299.21
2019-03-22T23:37:55.793Z,102300.86
2019-03-22T23:41:05.235Z,102304.75
2019-03-22T23:44:14.677Z,102303.67
2019-03-22T23:47:34.315Z,102300.23
2019-03-22T23:50:43.752Z,102299.87
2019-03-22T23:53:53.079Z,102295.38
2019-03-22T23:57:02.395Z,102288.95
